Schofield, Wisconsin
Current Conditions -  °F | °C
As of 8:08 AM on Monday 26 Jan 2015 (Local Time) from KAUW Reporting Station
Light Snow Light Snow  
Wind Chill:   Ceiling: 3200
Heat Index: 14°   Visibility: 1.5mi
Dew Point: 10°   Wind: 8mph
Humidity: 84%   Direction: 140°SE
Pressure: 29.8"   Gusts: NA
Location:  44.91°N, 89.6°W
Report Text: KAUW 261408Z AUTO 14007KT 1 1/2SM -SN BR OVC032 M10/M12 A2980 RMK AO2 P0000 T11001122
Loading
Personal Weather Stations






























Interactive Weather Map New forecast layout! Learn more

10-Day Weather Forecast

Advertisements
Track Severe Weather on mobile